sensor_id;sensor_type;location;lat;lon;timestamp;temperature;humidity
16767;DHT22;8501;49.926;8.404;2023-04-12T00:01:02;11.10;99.90
16767;DHT22;8501;49.926;8.404;2023-04-12T00:03:28;11.00;99.90
16767;DHT22;8501;49.926;8.404;2023-04-12T00:05:54;11.10;99.90
16767;DHT22;8501;49.926;8.404;2023-04-12T00:08:23;11.10;99.90
16767;DHT22;8501;49.926;8.404;2023-04-12T00:10:51;11.00;99.90
16767;DHT22;8501;49.926;8.404;2023-04-12T00:13:17;11.10;99.90
16767;DHT22;8501;49.926;8.404;2023-04-12T00:15:43;11.10;99.90
16767;DHT22;8501;49.926;8.404;2023-04-12T00:18:08;11.10;99.90
16767;DHT22;8501;49.926;8.404;2023-04-12T00:20:34;11.10;99.90
16767;DHT22;8501;49.926;8.404;2023-04-12T00:23:00;11.10;99.90
16767;DHT22;8501;49.926;8.404;2023-04-12T00:25:25;11.10;99.90
16767;DHT22;8501;49.926;8.404;2023-04-12T00:27:51;11.00;99.90
16767;DHT22;8501;49.926;8.404;2023-04-12T00:30:16;11.10;99.90
16767;DHT22;8501;49.926;8.404;2023-04-12T00:32:42;11.00;99.90
16767;DHT22;8501;49.926;8.404;2023-04-12T00:35:08;11.10;99.90
16767;DHT22;8501;49.926;8.404;2023-04-12T00:37:33;11.10;99.90
16767;DHT22;8501;49.926;8.404;2023-04-12T00:40:01;11.10;99.90
16767;DHT22;8501;49.926;8.404;2023-04-12T00:42:27;11.10;99.90
16767;DHT22;8501;49.926;8.404;2023-04-12T00:44:52;11.00;99.90
16767;DHT22;8501;49.926;8.404;2023-04-12T00:47:18;11.00;99.90
16767;DHT22;8501;49.926;8.404;2023-04-12T00:49:44;11.10;99.90
16767;DHT22;8501;49.926;8.404;2023-04-12T00:52:12;11.00;99.90
16767;DHT22;8501;49.926;8.404;2023-04-12T00:54:40;11.00;99.90
16767;DHT22;8501;49.926;8.404;2023-04-12T00:57:06;10.90;99.90
16767;DHT22;8501;49.926;8.404;2023-04-12T00:59:32;10.90;99.90
16767;DHT22;8501;49.926;8.404;2023-04-12T01:01:58;10.90;99.90
16767;DHT22;8501;49.926;8.404;2023-04-12T01:04:25;10.90;99.90
16767;DHT22;8501;49.926;8.404;2023-04-12T01:15:09;10.80;99.90
16767;DHT22;8501;49.926;8.404;2023-04-12T01:17:46;10.70;99.90
16767;DHT22;8501;49.926;8.404;2023-04-12T01:20:17;10.70;99.90
16767;DHT22;8501;49.926;8.404;2023-04-12T01:25:44;10.70;99.90
16767;DHT22;8501;49.926;8.404;2023-04-12T01:28:15;10.70;99.90
16767;DHT22;8501;49.926;8.404;2023-04-12T01:30:45;10.60;99.90
16767;DHT22;8501;49.926;8.404;2023-04-12T01:33:12;10.60;99.90
16767;DHT22;8501;49.926;8.404;2023-04-12T01:35:40;10.50;99.90
16767;DHT22;8501;49.926;8.404;2023-04-12T01:38:06;10.40;99.90
16767;DHT22;8501;49.926;8.404;2023-04-12T01:40:33;10.50;99.90
16767;DHT22;8501;49.926;8.404;2023-04-12T01:45:29;10.40;99.90
16767;DHT22;8501;49.926;8.404;2023-04-12T01:47:55;10.40;99.90
16767;DHT22;8501;49.926;8.404;2023-04-12T01:53:16;10.50;99.90
16767;DHT22;8501;49.926;8.404;2023-04-12T01:55:43;10.50;99.90
16767;DHT22;8501;49.926;8.404;2023-04-12T01:58:14;10.40;99.90
16767;DHT22;8501;49.926;8.404;2023-04-12T02:00:42;10.30;99.90
16767;DHT22;8501;49.926;8.404;2023-04-12T02:03:08;10.30;99.90
16767;DHT22;8501;49.926;8.404;2023-04-12T02:05:34;10.20;99.90
16767;DHT22;8501;49.926;8.404;2023-04-12T02:08:01;10.30;99.90
16767;DHT22;8501;49.926;8.404;2023-04-12T02:10:29;10.30;99.90
16767;DHT22;8501;49.926;8.404;2023-04-12T02:13:00;10.40;99.90
16767;DHT22;8501;49.926;8.404;2023-04-12T02:15:27;10.30;99.90
16767;DHT22;8501;49.926;8.404;2023-04-12T02:17:53;10.30;99.90
16767;DHT22;8501;49.926;8.404;2023-04-12T02:20:22;10.20;99.90
16767;DHT22;8501;49.926;8.404;2023-04-12T02:22:48;10.20;99.90
16767;DHT22;8501;49.926;8.404;2023-04-12T02:25:14;10.10;99.90
16767;DHT22;8501;49.926;8.404;2023-04-12T02:27:43;10.20;99.90
16767;DHT22;8501;49.926;8.404;2023-04-12T02:30:08;10.20;99.90
16767;DHT22;8501;49.926;8.404;2023-04-12T02:32:34;10.20;99.90
16767;DHT22;8501;49.926;8.404;2023-04-12T02:35:08;10.20;99.90
16767;DHT22;8501;49.926;8.404;2023-04-12T02:37:34;10.30;99.90
16767;DHT22;8501;49.926;8.404;2023-04-12T02:40:01;10.30;99.90
16767;DHT22;8501;49.926;8.404;2023-04-12T02:42:29;10.30;99.90
16767;DHT22;8501;49.926;8.404;2023-04-12T02:44:54;10.30;99.90
16767;DHT22;8501;49.926;8.404;2023-04-12T02:47:20;10.20;99.90
16767;DHT22;8501;49.926;8.404;2023-04-12T02:49:45;10.20;99.90
16767;DHT22;8501;49.926;8.404;2023-04-12T02:52:11;10.20;99.90
16767;DHT22;8501;49.926;8.404;2023-04-12T02:54:37;10.20;99.90
16767;DHT22;8501;49.926;8.404;2023-04-12T02:57:03;10.20;99.90
16767;DHT22;8501;49.926;8.404;2023-04-12T02:59:28;10.20;99.90
16767;DHT22;8501;49.926;8.404;2023-04-12T03:01:55;10.20;99.90
16767;DHT22;8501;49.926;8.404;2023-04-12T03:04:20;10.20;99.90
16767;DHT22;8501;49.926;8.404;2023-04-12T03:06:46;10.20;99.90
16767;DHT22;8501;49.926;8.404;2023-04-12T03:09:18;10.20;99.90
16767;DHT22;8501;49.926;8.404;2023-04-12T03:11:45;10.10;99.90
16767;DHT22;8501;49.926;8.404;2023-04-12T03:14:11;10.10;99.90
16767;DHT22;8501;49.926;8.404;2023-04-12T03:16:36;10.10;99.90
16767;DHT22;8501;49.926;8.404;2023-04-12T03:19:02;10.10;99.90
16767;DHT22;8501;49.926;8.404;2023-04-12T03:21:30;10.10;99.90
16767;DHT22;8501;49.926;8.404;2023-04-12T03:23:57;10.00;99.90
16767;DHT22;8501;49.926;8.404;2023-04-12T03:26:23;10.00;99.90
16767;DHT22;8501;49.926;8.404;2023-04-12T03:28:55;10.00;99.90
16767;DHT22;8501;49.926;8.404;2023-04-12T03:31:20;10.00;99.90
16767;DHT22;8501;49.926;8.404;2023-04-12T03:33:46;9.90;99.90
16767;DHT22;8501;49.926;8.404;2023-04-12T03:36:11;9.90;99.90
16767;DHT22;8501;49.926;8.404;2023-04-12T03:38:37;10.00;99.90
16767;DHT22;8501;49.926;8.404;2023-04-12T03:41:03;10.00;99.90
16767;DHT22;8501;49.926;8.404;2023-04-12T03:43:28;9.90;99.90
16767;DHT22;8501;49.926;8.404;2023-04-12T03:46:03;9.90;99.90
16767;DHT22;8501;49.926;8.404;2023-04-12T03:48:28;9.90;99.90
16767;DHT22;8501;49.926;8.404;2023-04-12T03:50:54;9.90;99.90
16767;DHT22;8501;49.926;8.404;2023-04-12T03:53:20;9.90;99.90
16767;DHT22;8501;49.926;8.404;2023-04-12T03:55:45;9.90;99.90
16767;DHT22;8501;49.926;8.404;2023-04-12T03:58:11;9.80;99.90
16767;DHT22;8501;49.926;8.404;2023-04-12T04:00:38;9.80;99.90
16767;DHT22;8501;49.926;8.404;2023-04-12T04:03:04;9.80;99.90
16767;DHT22;8501;49.926;8.404;2023-04-12T04:05:30;9.80;99.90
16767;DHT22;8501;49.926;8.404;2023-04-12T04:07:56;9.80;99.90
16767;DHT22;8501;49.926;8.404;2023-04-12T04:10:27;9.80;99.90
16767;DHT22;8501;49.926;8.404;2023-04-12T04:12:53;9.80;99.90
16767;DHT22;8501;49.926;8.404;2023-04-12T04:15:19;9.90;99.90
16767;DHT22;8501;49.926;8.404;2023-04-12T04:17:44;9.90;99.90
16767;DHT22;8501;49.926;8.404;2023-04-12T04:20:12;9.90;99.90
16767;DHT22;8501;49.926;8.404;2023-04-12T04:22:38;9.90;99.90
16767;DHT22;8501;49.926;8.404;2023-04-12T04:25:04;9.90;99.90
16767;DHT22;8501;49.926;8.404;2023-04-12T04:27:30;9.90;99.90
16767;DHT22;8501;49.926;8.404;2023-04-12T04:29:59;9.90;99.90
16767;DHT22;8501;49.926;8.404;2023-04-12T04:32:27;9.90;99.90
16767;DHT22;8501;49.926;8.404;2023-04-12T04:34:55;9.90;99.90
16767;DHT22;8501;49.926;8.404;2023-04-12T04:37:21;9.80;99.90
16767;DHT22;8501;49.926;8.404;2023-04-12T04:39:49;9.80;99.90
16767;DHT22;8501;49.926;8.404;2023-04-12T04:42:15;9.80;99.90
16767;DHT22;8501;49.926;8.404;2023-04-12T04:44:40;9.80;99.90
16767;DHT22;8501;49.926;8.404;2023-04-12T04:47:06;9.70;99.90
16767;DHT22;8501;49.926;8.404;2023-04-12T04:49:32;9.80;99.90
16767;DHT22;8501;49.926;8.404;2023-04-12T04:51:58;9.80;99.90
16767;DHT22;8501;49.926;8.404;2023-04-12T04:54:24;9.90;99.90
16767;DHT22;8501;49.926;8.404;2023-04-12T04:56:49;9.80;99.90
16767;DHT22;8501;49.926;8.404;2023-04-12T04:59:16;9.80;99.90
16767;DHT22;8501;49.926;8.404;2023-04-12T05:01:42;9.80;99.90
16767;DHT22;8501;49.926;8.404;2023-04-12T05:04:07;9.70;99.90
16767;DHT22;8501;49.926;8.404;2023-04-12T05:06:33;9.70;99.90
16767;DHT22;8501;49.926;8.404;2023-04-12T05:08:58;9.70;99.90
16767;DHT22;8501;49.926;8.404;2023-04-12T05:11:26;9.70;99.90
16767;DHT22;8501;49.926;8.404;2023-04-12T05:13:52;9.70;99.90
16767;DHT22;8501;49.926;8.404;2023-04-12T05:16:17;9.70;99.90
16767;DHT22;8501;49.926;8.404;2023-04-12T05:18:43;9.70;99.90
16767;DHT22;8501;49.926;8.404;2023-04-12T05:21:09;9.70;99.90
16767;DHT22;8501;49.926;8.404;2023-04-12T05:23:35;9.70;99.90
16767;DHT22;8501;49.926;8.404;2023-04-12T05:26:01;9.60;99.90
16767;DHT22;8501;49.926;8.404;2023-04-12T05:28:27;9.60;99.90
16767;DHT22;8501;49.926;8.404;2023-04-12T05:30:53;9.70;99.90
16767;DHT22;8501;49.926;8.404;2023-04-12T05:33:18;9.60;99.90
16767;DHT22;8501;49.926;8.404;2023-04-12T05:35:44;9.60;99.90
16767;DHT22;8501;49.926;8.404;2023-04-12T05:38:09;9.60;99.90
16767;DHT22;8501;49.926;8.404;2023-04-12T05:40:35;9.70;99.90
16767;DHT22;8501;49.926;8.404;2023-04-12T05:43:01;9.70;99.90
16767;DHT22;8501;49.926;8.404;2023-04-12T05:45:26;9.70;99.90
16767;DHT22;8501;49.926;8.404;2023-04-12T05:47:53;9.70;99.90
16767;DHT22;8501;49.926;8.404;2023-04-12T05:50:20;9.70;99.90
16767;DHT22;8501;49.926;8.404;2023-04-12T05:52:45;9.60;99.90
16767;DHT22;8501;49.926;8.404;2023-04-12T05:55:13;9.60;99.90
16767;DHT22;8501;49.926;8.404;2023-04-12T05:57:39;9.60;99.90
16767;DHT22;8501;49.926;8.404;2023-04-12T06:00:05;9.60;99.90
16767;DHT22;8501;49.926;8.404;2023-04-12T06:02:37;9.60;99.90
16767;DHT22;8501;49.926;8.404;2023-04-12T06:05:03;9.60;99.90
16767;DHT22;8501;49.926;8.404;2023-04-12T06:07:29;9.60;99.90
16767;DHT22;8501;49.926;8.404;2023-04-12T06:09:55;9.60;99.90
16767;DHT22;8501;49.926;8.404;2023-04-12T06:12:20;9.60;99.90
16767;DHT22;8501;49.926;8.404;2023-04-12T06:14:46;9.50;99.90
16767;DHT22;8501;49.926;8.404;2023-04-12T06:17:11;9.50;99.90
16767;DHT22;8501;49.926;8.404;2023-04-12T06:19:37;9.50;99.90
16767;DHT22;8501;49.926;8.404;2023-04-12T06:22:03;9.60;99.90
16767;DHT22;8501;49.926;8.404;2023-04-12T06:24:28;9.50;99.90
16767;DHT22;8501;49.926;8.404;2023-04-12T06:26:54;9.50;99.90
16767;DHT22;8501;49.926;8.404;2023-04-12T06:29:20;9.50;99.90
16767;DHT22;8501;49.926;8.404;2023-04-12T06:31:46;9.50;99.90
16767;DHT22;8501;49.926;8.404;2023-04-12T06:34:11;9.50;99.90
16767;DHT22;8501;49.926;8.404;2023-04-12T06:36:37;9.50;99.90
16767;DHT22;8501;49.926;8.404;2023-04-12T06:39:04;9.50;99.90
16767;DHT22;8501;49.926;8.404;2023-04-12T06:41:31;9.50;99.90
16767;DHT22;8501;49.926;8.404;2023-04-12T06:43:56;9.50;99.90
16767;DHT22;8501;49.926;8.404;2023-04-12T06:46:26;9.50;99.90
16767;DHT22;8501;49.926;8.404;2023-04-12T06:48:52;9.50;99.90
16767;DHT22;8501;49.926;8.404;2023-04-12T06:51:17;9.50;99.90
16767;DHT22;8501;49.926;8.404;2023-04-12T06:53:43;9.50;99.90
16767;DHT22;8501;49.926;8.404;2023-04-12T06:56:08;9.50;99.90
16767;DHT22;8501;49.926;8.404;2023-04-12T06:58:34;9.50;99.90
16767;DHT22;8501;49.926;8.404;2023-04-12T07:01:07;9.60;99.90
16767;DHT22;8501;49.926;8.404;2023-04-12T07:03:33;9.60;99.90
16767;DHT22;8501;49.926;8.404;2023-04-12T07:05:59;9.60;99.90
16767;DHT22;8501;49.926;8.404;2023-04-12T07:08:36;9.60;99.90
16767;DHT22;8501;49.926;8.404;2023-04-12T07:11:02;9.60;99.90
16767;DHT22;8501;49.926;8.404;2023-04-12T07:13:28;9.60;99.90
16767;DHT22;8501;49.926;8.404;2023-04-12T07:15:54;9.60;99.90
16767;DHT22;8501;49.926;8.404;2023-04-12T07:18:20;9.60;99.90
16767;DHT22;8501;49.926;8.404;2023-04-12T07:20:51;9.60;99.90
16767;DHT22;8501;49.926;8.404;2023-04-12T07:23:17;9.60;99.90
16767;DHT22;8501;49.926;8.404;2023-04-12T07:25:43;9.60;99.90
16767;DHT22;8501;49.926;8.404;2023-04-12T07:28:08;9.70;99.90
16767;DHT22;8501;49.926;8.404;2023-04-12T07:30:34;9.70;99.90
16767;DHT22;8501;49.926;8.404;2023-04-12T07:32:59;9.70;99.90
16767;DHT22;8501;49.926;8.404;2023-04-12T07:35:32;9.70;99.90
16767;DHT22;8501;49.926;8.404;2023-04-12T07:37:58;9.70;99.90
16767;DHT22;8501;49.926;8.404;2023-04-12T07:40:25;9.70;99.90
16767;DHT22;8501;49.926;8.404;2023-04-12T07:42:51;9.70;99.90
16767;DHT22;8501;49.926;8.404;2023-04-12T07:45:17;9.80;99.90
16767;DHT22;8501;49.926;8.404;2023-04-12T07:47:43;9.80;99.90
16767;DHT22;8501;49.926;8.404;2023-04-12T07:50:09;9.80;99.90
16767;DHT22;8501;49.926;8.404;2023-04-12T07:52:35;9.80;99.90
16767;DHT22;8501;49.926;8.404;2023-04-12T07:55:00;9.90;99.90
16767;DHT22;8501;49.926;8.404;2023-04-12T07:57:26;9.80;99.90
16767;DHT22;8501;49.926;8.404;2023-04-12T07:59:51;9.80;99.90
16767;DHT22;8501;49.926;8.404;2023-04-12T08:02:17;9.80;99.90
16767;DHT22;8501;49.926;8.404;2023-04-12T08:04:50;9.90;99.90
16767;DHT22;8501;49.926;8.404;2023-04-12T08:07:15;9.90;99.90
16767;DHT22;8501;49.926;8.404;2023-04-12T08:09:41;9.90;99.90
16767;DHT22;8501;49.926;8.404;2023-04-12T08:12:07;9.90;99.90
16767;DHT22;8501;49.926;8.404;2023-04-12T08:14:32;9.90;99.90
16767;DHT22;8501;49.926;8.404;2023-04-12T08:16:58;9.90;99.90
16767;DHT22;8501;49.926;8.404;2023-04-12T08:19:23;9.90;99.90
16767;DHT22;8501;49.926;8.404;2023-04-12T08:21:49;9.90;99.90
16767;DHT22;8501;49.926;8.404;2023-04-12T08:24:14;9.90;99.90
16767;DHT22;8501;49.926;8.404;2023-04-12T08:26:40;9.90;99.90
16767;DHT22;8501;49.926;8.404;2023-04-12T08:29:06;9.90;99.90
16767;DHT22;8501;49.926;8.404;2023-04-12T08:31:32;10.00;99.90
16767;DHT22;8501;49.926;8.404;2023-04-12T08:33:57;10.00;99.90
16767;DHT22;8501;49.926;8.404;2023-04-12T08:36:24;10.00;99.90
16767;DHT22;8501;49.926;8.404;2023-04-12T08:38:51;10.10;99.90
16767;DHT22;8501;49.926;8.404;2023-04-12T08:41:20;10.10;99.90
16767;DHT22;8501;49.926;8.404;2023-04-12T08:43:45;10.10;99.90
16767;DHT22;8501;49.926;8.404;2023-04-12T08:46:15;10.20;99.90
16767;DHT22;8501;49.926;8.404;2023-04-12T08:48:47;10.10;99.90
16767;DHT22;8501;49.926;8.404;2023-04-12T08:51:15;10.20;99.90
16767;DHT22;8501;49.926;8.404;2023-04-12T08:53:40;10.20;99.90
16767;DHT22;8501;49.926;8.404;2023-04-12T08:56:10;10.20;99.90
16767;DHT22;8501;49.926;8.404;2023-04-12T08:58:38;10.20;99.90
16767;DHT22;8501;49.926;8.404;2023-04-12T09:01:09;10.20;99.90
16767;DHT22;8501;49.926;8.404;2023-04-12T09:03:35;10.20;99.90
16767;DHT22;8501;49.926;8.404;2023-04-12T09:06:02;10.30;99.90
16767;DHT22;8501;49.926;8.404;2023-04-12T09:08:27;10.30;99.90
16767;DHT22;8501;49.926;8.404;2023-04-12T09:10:53;10.30;99.90
16767;DHT22;8501;49.926;8.404;2023-04-12T09:13:33;10.30;99.90
16767;DHT22;8501;49.926;8.404;2023-04-12T09:16:01;10.30;99.90
16767;DHT22;8501;49.926;8.404;2023-04-12T09:18:26;10.30;99.90
16767;DHT22;8501;49.926;8.404;2023-04-12T09:21:06;10.30;99.90
16767;DHT22;8501;49.926;8.404;2023-04-12T09:23:32;10.40;99.90
16767;DHT22;8501;49.926;8.404;2023-04-12T09:26:00;10.40;99.90
16767;DHT22;8501;49.926;8.404;2023-04-12T09:28:27;10.40;99.90
16767;DHT22;8501;49.926;8.404;2023-04-12T09:30:55;10.40;99.90
16767;DHT22;8501;49.926;8.404;2023-04-12T09:33:23;10.50;99.90
16767;DHT22;8501;49.926;8.404;2023-04-12T09:38:23;10.50;99.90
16767;DHT22;8501;49.926;8.404;2023-04-12T09:40:48;10.50;99.90
16767;DHT22;8501;49.926;8.404;2023-04-12T09:43:14;10.50;99.90
16767;DHT22;8501;49.926;8.404;2023-04-12T09:45:40;10.60;99.90
16767;DHT22;8501;49.926;8.404;2023-04-12T09:48:06;10.60;99.90
16767;DHT22;8501;49.926;8.404;2023-04-12T09:50:32;10.60;99.90
16767;DHT22;8501;49.926;8.404;2023-04-12T09:53:00;10.60;99.90
16767;DHT22;8501;49.926;8.404;2023-04-12T09:55:27;10.70;99.90
16767;DHT22;8501;49.926;8.404;2023-04-12T09:57:54;10.60;99.90
16767;DHT22;8501;49.926;8.404;2023-04-12T10:00:24;10.70;99.90
16767;DHT22;8501;49.926;8.404;2023-04-12T10:02:52;10.70;99.90
16767;DHT22;8501;49.926;8.404;2023-04-12T10:05:21;10.70;99.90
16767;DHT22;8501;49.926;8.404;2023-04-12T10:07:47;10.70;99.90
16767;DHT22;8501;49.926;8.404;2023-04-12T10:10:15;10.70;99.90
16767;DHT22;8501;49.926;8.404;2023-04-12T10:12:43;10.60;99.90
16767;DHT22;8501;49.926;8.404;2023-04-12T10:15:12;10.80;99.90
16767;DHT22;8501;49.926;8.404;2023-04-12T10:17:44;10.80;99.90
16767;DHT22;8501;49.926;8.404;2023-04-12T10:20:11;10.80;99.90
16767;DHT22;8501;49.926;8.404;2023-04-12T10:22:39;10.90;99.90
16767;DHT22;8501;49.926;8.404;2023-04-12T10:25:12;10.90;99.90
16767;DHT22;8501;49.926;8.404;2023-04-12T10:27:42;10.90;99.90
16767;DHT22;8501;49.926;8.404;2023-04-12T10:30:29;10.80;99.90
16767;DHT22;8501;49.926;8.404;2023-04-12T10:35:27;10.90;99.90
16767;DHT22;8501;49.926;8.404;2023-04-12T10:38:01;10.90;99.90
16767;DHT22;8501;49.926;8.404;2023-04-12T10:40:28;11.00;99.90
16767;DHT22;8501;49.926;8.404;2023-04-12T10:45:47;11.00;99.90
16767;DHT22;8501;49.926;8.404;2023-04-12T10:48:36;11.00;99.90
16767;DHT22;8501;49.926;8.404;2023-04-12T10:53:39;11.00;99.90
16767;DHT22;8501;49.926;8.404;2023-04-12T10:59:16;11.10;99.90
16767;DHT22;8501;49.926;8.404;2023-04-12T11:02:08;11.20;99.90
16767;DHT22;8501;49.926;8.404;2023-04-12T11:04:34;11.20;99.90
16767;DHT22;8501;49.926;8.404;2023-04-12T11:07:07;11.20;99.90
16767;DHT22;8501;49.926;8.404;2023-04-12T11:19:42;11.30;99.90
16767;DHT22;8501;49.926;8.404;2023-04-12T11:22:16;11.30;99.90
16767;DHT22;8501;49.926;8.404;2023-04-12T11:24:44;11.30;99.90
16767;DHT22;8501;49.926;8.404;2023-04-12T11:27:10;11.30;99.90
16767;DHT22;8501;49.926;8.404;2023-04-12T11:29:36;11.40;99.90
16767;DHT22;8501;49.926;8.404;2023-04-12T11:32:02;11.40;99.90
16767;DHT22;8501;49.926;8.404;2023-04-12T11:34:32;11.40;99.90
16767;DHT22;8501;49.926;8.404;2023-04-12T11:36:59;11.50;99.90
16767;DHT22;8501;49.926;8.404;2023-04-12T11:39:26;11.50;99.90
16767;DHT22;8501;49.926;8.404;2023-04-12T11:41:52;11.50;99.90
16767;DHT22;8501;49.926;8.404;2023-04-12T11:44:18;11.60;99.90
16767;DHT22;8501;49.926;8.404;2023-04-12T11:46:46;11.60;99.90
16767;DHT22;8501;49.926;8.404;2023-04-12T11:49:19;11.60;99.90
16767;DHT22;8501;49.926;8.404;2023-04-12T11:51:45;11.70;99.90
16767;DHT22;8501;49.926;8.404;2023-04-12T11:54:12;11.70;99.90
16767;DHT22;8501;49.926;8.404;2023-04-12T11:56:38;11.70;99.90
16767;DHT22;8501;49.926;8.404;2023-04-12T11:59:04;11.80;99.90
16767;DHT22;8501;49.926;8.404;2023-04-12T12:01:31;11.80;99.90
16767;DHT22;8501;49.926;8.404;2023-04-12T12:03:58;11.80;99.90
16767;DHT22;8501;49.926;8.404;2023-04-12T12:06:24;11.90;99.90
16767;DHT22;8501;49.926;8.404;2023-04-12T12:08:51;11.80;99.90
16767;DHT22;8501;49.926;8.404;2023-04-12T12:11:20;11.80;99.90
16767;DHT22;8501;49.926;8.404;2023-04-12T12:13:48;11.80;99.90
16767;DHT22;8501;49.926;8.404;2023-04-12T12:16:15;11.80;99.90
16767;DHT22;8501;49.926;8.404;2023-04-12T12:18:42;11.90;99.90
16767;DHT22;8501;49.926;8.404;2023-04-12T12:21:08;11.90;99.90
16767;DHT22;8501;49.926;8.404;2023-04-12T12:23:35;11.90;99.90
16767;DHT22;8501;49.926;8.404;2023-04-12T12:26:01;11.90;99.90
16767;DHT22;8501;49.926;8.404;2023-04-12T12:28:37;11.90;99.90
16767;DHT22;8501;49.926;8.404;2023-04-12T12:31:06;11.90;99.90
16767;DHT22;8501;49.926;8.404;2023-04-12T12:33:36;12.00;99.90
16767;DHT22;8501;49.926;8.404;2023-04-12T12:36:02;12.00;99.90
16767;DHT22;8501;49.926;8.404;2023-04-12T12:38:35;12.00;99.90
16767;DHT22;8501;49.926;8.404;2023-04-12T12:41:16;12.00;99.90
16767;DHT22;8501;49.926;8.404;2023-04-12T12:43:46;12.00;99.90
16767;DHT22;8501;49.926;8.404;2023-04-12T12:46:12;12.10;99.90
16767;DHT22;8501;49.926;8.404;2023-04-12T12:48:39;12.10;99.90
16767;DHT22;8501;49.926;8.404;2023-04-12T12:51:05;12.00;99.90
16767;DHT22;8501;49.926;8.404;2023-04-12T12:53:31;11.90;99.90
16767;DHT22;8501;49.926;8.404;2023-04-12T12:55:56;12.00;99.90
16767;DHT22;8501;49.926;8.404;2023-04-12T12:58:22;12.00;99.90
16767;DHT22;8501;49.926;8.404;2023-04-12T13:00:47;12.00;99.90
16767;DHT22;8501;49.926;8.404;2023-04-12T13:03:13;12.00;99.90
16767;DHT22;8501;49.926;8.404;2023-04-12T13:05:38;12.00;99.90
16767;DHT22;8501;49.926;8.404;2023-04-12T13:08:04;12.00;99.90
16767;DHT22;8501;49.926;8.404;2023-04-12T13:10:30;11.90;99.90
16767;DHT22;8501;49.926;8.404;2023-04-12T13:12:56;11.90;99.90
16767;DHT22;8501;49.926;8.404;2023-04-12T13:15:23;11.90;99.90
16767;DHT22;8501;49.926;8.404;2023-04-12T13:17:50;11.90;99.90
16767;DHT22;8501;49.926;8.404;2023-04-12T13:20:16;11.90;99.90
16767;DHT22;8501;49.926;8.404;2023-04-12T13:22:41;12.00;99.90
16767;DHT22;8501;49.926;8.404;2023-04-12T13:25:07;12.00;99.90
16767;DHT22;8501;49.926;8.404;2023-04-12T13:27:33;12.10;99.90
16767;DHT22;8501;49.926;8.404;2023-04-12T13:29:59;12.10;99.90
16767;DHT22;8501;49.926;8.404;2023-04-12T13:32:25;12.20;99.90
16767;DHT22;8501;49.926;8.404;2023-04-12T13:34:51;12.20;99.90
16767;DHT22;8501;49.926;8.404;2023-04-12T13:37:17;12.30;99.90
16767;DHT22;8501;49.926;8.404;2023-04-12T13:39:42;12.30;99.90
16767;DHT22;8501;49.926;8.404;2023-04-12T13:42:09;12.30;99.90
16767;DHT22;8501;49.926;8.404;2023-04-12T13:44:35;12.30;99.90
16767;DHT22;8501;49.926;8.404;2023-04-12T13:47:01;12.30;99.90
16767;DHT22;8501;49.926;8.404;2023-04-12T13:49:27;12.30;99.90
16767;DHT22;8501;49.926;8.404;2023-04-12T13:51:52;12.30;99.90
16767;DHT22;8501;49.926;8.404;2023-04-12T13:54:18;12.30;99.90
16767;DHT22;8501;49.926;8.404;2023-04-12T13:56:43;12.30;99.90
16767;DHT22;8501;49.926;8.404;2023-04-12T13:59:09;12.30;99.90
16767;DHT22;8501;49.926;8.404;2023-04-12T14:01:36;12.20;99.90
16767;DHT22;8501;49.926;8.404;2023-04-12T14:04:01;12.20;99.90
16767;DHT22;8501;49.926;8.404;2023-04-12T14:06:28;12.20;99.90
16767;DHT22;8501;49.926;8.404;2023-04-12T14:08:54;12.20;99.90
16767;DHT22;8501;49.926;8.404;2023-04-12T14:11:22;12.20;99.90
16767;DHT22;8501;49.926;8.404;2023-04-12T14:13:48;12.30;99.90
16767;DHT22;8501;49.926;8.404;2023-04-12T14:16:13;12.30;99.90
16767;DHT22;8501;49.926;8.404;2023-04-12T14:18:39;12.30;99.90
16767;DHT22;8501;49.926;8.404;2023-04-12T14:21:05;12.30;99.90
16767;DHT22;8501;49.926;8.404;2023-04-12T14:23:31;12.30;99.90
16767;DHT22;8501;49.926;8.404;2023-04-12T14:25:56;12.30;99.90
16767;DHT22;8501;49.926;8.404;2023-04-12T14:28:22;12.20;99.90
16767;DHT22;8501;49.926;8.404;2023-04-12T14:30:52;12.30;99.90
16767;DHT22;8501;49.926;8.404;2023-04-12T14:33:17;12.30;99.90
16767;DHT22;8501;49.926;8.404;2023-04-12T14:35:43;12.30;99.90
16767;DHT22;8501;49.926;8.404;2023-04-12T14:38:09;12.30;99.90
16767;DHT22;8501;49.926;8.404;2023-04-12T14:40:35;12.30;99.90
16767;DHT22;8501;49.926;8.404;2023-04-12T14:43:00;12.30;99.90
16767;DHT22;8501;49.926;8.404;2023-04-12T14:45:26;12.30;99.90
16767;DHT22;8501;49.926;8.404;2023-04-12T14:47:52;12.20;99.90
16767;DHT22;8501;49.926;8.404;2023-04-12T14:50:18;12.30;99.90
16767;DHT22;8501;49.926;8.404;2023-04-12T14:52:44;12.30;99.90
16767;DHT22;8501;49.926;8.404;2023-04-12T14:55:10;12.40;99.90
16767;DHT22;8501;49.926;8.404;2023-04-12T14:57:37;12.30;99.90
16767;DHT22;8501;49.926;8.404;2023-04-12T15:00:04;12.30;99.90
16767;DHT22;8501;49.926;8.404;2023-04-12T15:02:37;12.30;99.90
16767;DHT22;8501;49.926;8.404;2023-04-12T15:05:02;12.30;99.90
16767;DHT22;8501;49.926;8.404;2023-04-12T15:07:31;12.30;99.90
16767;DHT22;8501;49.926;8.404;2023-04-12T15:09:57;12.30;99.90
16767;DHT22;8501;49.926;8.404;2023-04-12T15:12:24;12.40;99.90
16767;DHT22;8501;49.926;8.404;2023-04-12T15:14:50;12.40;99.90
16767;DHT22;8501;49.926;8.404;2023-04-12T15:17:18;12.70;99.90
16767;DHT22;8501;49.926;8.404;2023-04-12T15:19:44;13.30;99.90
16767;DHT22;8501;49.926;8.404;2023-04-12T15:22:10;13.70;99.90
16767;DHT22;8501;49.926;8.404;2023-04-12T15:24:36;13.60;99.90
16767;DHT22;8501;49.926;8.404;2023-04-12T15:27:01;13.60;99.90
16767;DHT22;8501;49.926;8.404;2023-04-12T15:29:27;13.60;99.90
16767;DHT22;8501;49.926;8.404;2023-04-12T15:31:52;13.40;99.90
16767;DHT22;8501;49.926;8.404;2023-04-12T15:34:20;13.30;99.90
16767;DHT22;8501;49.926;8.404;2023-04-12T15:36:47;13.20;99.90
16767;DHT22;8501;49.926;8.404;2023-04-12T15:39:14;13.00;99.90
16767;DHT22;8501;49.926;8.404;2023-04-12T15:41:39;12.90;99.90
16767;DHT22;8501;49.926;8.404;2023-04-12T15:44:07;12.90;99.90
16767;DHT22;8501;49.926;8.404;2023-04-12T15:46:34;13.00;99.90
16767;DHT22;8501;49.926;8.404;2023-04-12T15:49:00;13.00;99.90
16767;DHT22;8501;49.926;8.404;2023-04-12T15:51:27;13.10;99.90
16767;DHT22;8501;49.926;8.404;2023-04-12T15:53:53;13.10;99.90
16767;DHT22;8501;49.926;8.404;2023-04-12T15:56:19;13.00;99.90
16767;DHT22;8501;49.926;8.404;2023-04-12T15:58:55;13.00;99.90
16767;DHT22;8501;49.926;8.404;2023-04-12T16:01:21;13.00;99.90
16767;DHT22;8501;49.926;8.404;2023-04-12T16:03:47;13.00;99.90
16767;DHT22;8501;49.926;8.404;2023-04-12T16:06:15;13.00;99.90
16767;DHT22;8501;49.926;8.404;2023-04-12T16:08:51;13.00;99.90
16767;DHT22;8501;49.926;8.404;2023-04-12T16:11:19;13.00;99.90
16767;DHT22;8501;49.926;8.404;2023-04-12T16:13:46;13.00;99.90
16767;DHT22;8501;49.926;8.404;2023-04-12T16:16:16;13.00;99.90
16767;DHT22;8501;49.926;8.404;2023-04-12T16:18:43;13.00;99.90
16767;DHT22;8501;49.926;8.404;2023-04-12T16:21:10;13.00;99.90
16767;DHT22;8501;49.926;8.404;2023-04-12T16:23:37;12.90;99.90
16767;DHT22;8501;49.926;8.404;2023-04-12T16:26:04;12.90;99.90
16767;DHT22;8501;49.926;8.404;2023-04-12T16:28:30;12.90;99.90